createdAt,value
2017-08-10T00:00:27.211Z,16.92
2017-08-10T00:01:24.527Z,16.91
2017-08-10T00:02:21.859Z,16.90
2017-08-10T00:03:19.146Z,16.90
2017-08-10T00:04:16.490Z,16.89
2017-08-10T00:05:13.701Z,16.88
2017-08-10T00:06:10.984Z,16.87
2017-08-10T00:07:08.220Z,16.86
2017-08-10T00:08:05.484Z,16.86
2017-08-10T00:09:02.706Z,16.84
2017-08-10T00:09:59.991Z,16.83
2017-08-10T00:10:57.246Z,16.84
2017-08-10T00:11:54.492Z,16.81
2017-08-10T00:12:51.716Z,16.80
2017-08-10T00:13:48.964Z,16.81
2017-08-10T00:14:46.204Z,16.79
2017-08-10T00:15:43.464Z,16.79
2017-08-10T00:16:40.739Z,16.79
2017-08-10T00:17:38.048Z,16.78
2017-08-10T00:18:35.319Z,16.77
2017-08-10T00:19:32.556Z,16.75
2017-08-10T00:20:29.799Z,16.76
2017-08-10T00:21:27.060Z,16.74
2017-08-10T00:22:24.284Z,16.73
2017-08-10T00:23:21.581Z,16.71
2017-08-10T00:24:18.838Z,16.72
2017-08-10T00:25:16.124Z,16.71
2017-08-10T00:26:13.352Z,16.69
2017-08-10T00:27:10.612Z,16.69
2017-08-10T00:28:07.842Z,16.69
2017-08-10T00:29:05.156Z,16.67
2017-08-10T00:30:02.407Z,16.66
2017-08-10T00:30:59.657Z,16.67
2017-08-10T00:31:56.904Z,16.66
2017-08-10T00:32:54.250Z,16.66
2017-08-10T00:33:51.560Z,16.66
2017-08-10T00:34:48.791Z,16.64
2017-08-10T00:35:46.027Z,16.63
2017-08-10T00:36:43.315Z,16.61
2017-08-10T00:37:40.568Z,16.62
2017-08-10T00:38:37.804Z,16.61
2017-08-10T00:39:35.036Z,16.61
2017-08-10T00:40:32.595Z,16.58
2017-08-10T00:41:29.891Z,16.59
2017-08-10T00:42:27.135Z,16.58
2017-08-10T00:43:24.387Z,16.56
2017-08-10T00:44:21.685Z,16.56
2017-08-10T00:45:18.975Z,16.55
2017-08-10T00:46:16.243Z,16.54
2017-08-10T00:47:13.468Z,16.54
2017-08-10T00:48:10.729Z,16.52
2017-08-10T00:49:07.987Z,16.52
2017-08-10T00:50:05.264Z,16.52
2017-08-10T00:51:02.552Z,16.51
2017-08-10T00:51:59.896Z,16.51
2017-08-10T00:52:57.153Z,16.50
2017-08-10T00:53:54.448Z,16.49
2017-08-10T00:54:51.738Z,16.48
2017-08-10T00:55:49.024Z,16.46
2017-08-10T00:56:46.302Z,16.46
2017-08-10T00:57:43.558Z,16.45
2017-08-10T00:58:40.824Z,16.43
2017-08-10T00:59:38.081Z,16.43
2017-08-10T01:00:35.373Z,16.43
2017-08-10T01:01:32.664Z,16.43
2017-08-10T01:02:29.953Z,16.41
2017-08-10T01:03:27.292Z,16.41
2017-08-10T01:04:24.635Z,16.40
2017-08-10T01:05:25.565Z,16.39
2017-08-10T01:06:22.876Z,16.38
2017-08-10T01:07:20.121Z,16.37
2017-08-10T01:08:17.452Z,16.37
2017-08-10T01:09:14.820Z,16.35
2017-08-10T01:10:12.144Z,16.35
2017-08-10T01:11:09.376Z,16.33
2017-08-10T01:12:06.616Z,16.34
2017-08-10T01:13:03.892Z,16.33
2017-08-10T01:14:01.232Z,16.32
2017-08-10T01:14:58.556Z,16.31
2017-08-10T01:15:55.806Z,16.31
2017-08-10T01:16:53.076Z,16.31
2017-08-10T01:17:50.342Z,16.30
2017-08-10T01:18:47.583Z,16.29
2017-08-10T01:19:44.857Z,16.28
2017-08-10T01:20:42.192Z,16.28
2017-08-10T01:21:39.516Z,16.27
2017-08-10T01:22:36.752Z,16.27
2017-08-10T01:23:34.025Z,16.26
2017-08-10T01:24:31.264Z,16.25
2017-08-10T01:25:28.557Z,16.23
2017-08-10T01:26:25.827Z,16.22
2017-08-10T01:27:23.118Z,16.22
2017-08-10T01:28:20.348Z,16.22
2017-08-10T01:29:17.607Z,16.21
2017-08-10T01:30:14.870Z,16.20
2017-08-10T01:31:12.149Z,16.18
2017-08-10T01:32:09.463Z,16.18
2017-08-10T01:33:06.738Z,16.18
2017-08-10T01:34:04.008Z,16.17
2017-08-10T01:35:01.285Z,16.17
2017-08-10T01:35:58.605Z,16.17
2017-08-10T01:36:55.981Z,16.15
2017-08-10T01:37:53.274Z,16.16
2017-08-10T01:38:50.575Z,16.15
2017-08-10T01:39:47.830Z,16.14
2017-08-10T01:40:45.204Z,16.13
2017-08-10T01:41:42.473Z,16.13
2017-08-10T01:42:39.733Z,16.13
2017-08-10T01:43:36.977Z,16.13
2017-08-10T01:44:34.272Z,16.12
2017-08-10T01:45:31.564Z,16.12
2017-08-10T01:46:28.935Z,16.10
2017-08-10T01:47:26.186Z,16.09
2017-08-10T01:48:23.519Z,16.09
2017-08-10T01:49:20.756Z,16.09
2017-08-10T01:50:18.016Z,16.10
2017-08-10T01:51:15.310Z,16.08
2017-08-10T01:52:12.560Z,16.06
2017-08-10T01:53:09.854Z,16.07
2017-08-10T01:54:07.147Z,16.06
2017-08-10T01:55:04.529Z,16.05
2017-08-10T01:56:01.841Z,16.05
2017-08-10T01:56:59.178Z,16.03
2017-08-10T01:57:56.444Z,16.03
2017-08-10T01:58:53.704Z,16.02
2017-08-10T01:59:51.030Z,16.02
2017-08-10T02:00:48.309Z,16.00
2017-08-10T02:01:45.566Z,16.00
2017-08-10T02:02:42.806Z,15.99
2017-08-10T02:03:40.073Z,15.98
2017-08-10T02:04:37.385Z,15.97
2017-08-10T02:05:34.639Z,15.98
2017-08-10T02:06:31.932Z,15.97
2017-08-10T02:07:29.264Z,15.95
2017-08-10T02:08:26.610Z,15.95
2017-08-10T02:09:23.928Z,15.96
2017-08-10T02:10:21.191Z,15.94
2017-08-10T02:11:18.573Z,15.94
2017-08-10T02:12:15.828Z,15.93
2017-08-10T02:13:13.129Z,15.92
2017-08-10T02:14:10.408Z,15.91
2017-08-10T02:15:07.694Z,15.91
2017-08-10T02:16:04.984Z,15.90
2017-08-10T02:17:02.304Z,15.90
2017-08-10T02:17:59.565Z,15.90
2017-08-10T02:18:56.866Z,15.89
2017-08-10T02:19:54.149Z,15.88
2017-08-10T02:20:51.517Z,15.89
2017-08-10T02:21:48.812Z,15.87
2017-08-10T02:22:46.197Z,15.88
2017-08-10T02:23:43.457Z,15.85
2017-08-10T02:24:40.790Z,15.86
2017-08-10T02:25:38.084Z,15.84
2017-08-10T02:26:35.387Z,15.84
2017-08-10T02:27:32.636Z,15.83
2017-08-10T02:28:29.920Z,15.82
2017-08-10T02:29:27.186Z,15.82
2017-08-10T02:30:24.435Z,15.81
2017-08-10T02:31:22.137Z,15.82
2017-08-10T02:32:19.420Z,15.81
2017-08-10T02:33:16.657Z,15.80
2017-08-10T02:34:20.565Z,15.80
2017-08-10T02:35:17.802Z,15.78
2017-08-10T02:36:15.085Z,15.76
2017-08-10T02:37:12.344Z,15.77
2017-08-10T02:38:09.605Z,15.76
2017-08-10T02:39:06.887Z,15.76
2017-08-10T02:40:04.175Z,15.76
2017-08-10T02:41:01.485Z,15.75
2017-08-10T02:41:58.857Z,15.73
2017-08-10T02:42:56.138Z,15.73
2017-08-10T02:43:53.398Z,15.73
2017-08-10T02:44:50.706Z,15.73
2017-08-10T02:45:48.016Z,15.72
2017-08-10T02:46:45.331Z,15.71
2017-08-10T02:47:42.617Z,15.71
2017-08-10T02:48:39.922Z,15.71
2017-08-10T02:49:37.195Z,15.70
2017-08-10T02:50:34.441Z,15.70
2017-08-10T02:51:31.808Z,15.70
2017-08-10T02:52:29.117Z,15.70
2017-08-10T02:53:26.416Z,15.69
2017-08-10T02:54:23.647Z,15.68
2017-08-10T02:55:20.926Z,15.68
2017-08-10T02:56:18.177Z,15.67
2017-08-10T02:57:15.576Z,15.67
2017-08-10T02:58:12.910Z,15.68
2017-08-10T02:59:10.183Z,15.65
2017-08-10T03:00:07.560Z,15.66
2017-08-10T03:01:04.860Z,15.65
2017-08-10T03:02:02.103Z,15.65
2017-08-10T03:02:59.404Z,15.64
2017-08-10T03:03:56.684Z,15.63
2017-08-10T03:04:53.952Z,15.64
2017-08-10T03:05:51.190Z,15.62
2017-08-10T03:06:48.520Z,15.62
2017-08-10T03:07:45.801Z,15.62
2017-08-10T03:08:43.049Z,15.61
2017-08-10T03:09:40.287Z,15.60
2017-08-10T03:10:37.601Z,15.61
2017-08-10T03:11:34.856Z,15.60
2017-08-10T03:12:32.160Z,15.59
2017-08-10T03:13:29.477Z,15.59
2017-08-10T03:14:26.821Z,15.60
2017-08-10T03:15:24.080Z,15.58
2017-08-10T03:16:21.338Z,15.58
2017-08-10T03:17:18.577Z,15.57
2017-08-10T03:18:15.853Z,15.57
2017-08-10T03:19:13.172Z,15.57
2017-08-10T03:20:10.481Z,15.56
2017-08-10T03:21:07.721Z,15.55
2017-08-10T03:22:04.972Z,15.56
2017-08-10T03:23:02.265Z,15.54
2017-08-10T03:23:59.529Z,15.54
2017-08-10T03:24:56.778Z,15.53
2017-08-10T03:25:54.052Z,15.54
2017-08-10T03:26:51.300Z,15.53
2017-08-10T03:27:48.551Z,15.53
2017-08-10T03:28:45.800Z,15.53
2017-08-10T03:29:43.062Z,15.52
2017-08-10T03:30:40.362Z,15.52
2017-08-10T03:31:37.616Z,15.52
2017-08-10T03:32:34.869Z,15.50
2017-08-10T03:33:32.170Z,15.49
2017-08-10T03:34:29.443Z,15.47
2017-08-10T03:35:26.754Z,15.48
2017-08-10T03:36:24.004Z,15.48
2017-08-10T03:37:21.315Z,15.48
2017-08-10T03:38:18.593Z,15.48
2017-08-10T03:39:15.936Z,15.46
2017-08-10T03:40:13.173Z,15.47
2017-08-10T03:41:10.429Z,15.46
2017-08-10T03:42:07.709Z,15.46
2017-08-10T03:43:04.976Z,15.45
2017-08-10T03:44:02.256Z,15.44
2017-08-10T03:44:59.517Z,15.44
2017-08-10T03:45:56.767Z,15.44
2017-08-10T03:46:54.121Z,15.43
2017-08-10T03:47:51.393Z,15.43
2017-08-10T03:48:48.745Z,15.42
2017-08-10T03:49:45.987Z,15.42
2017-08-10T03:50:43.236Z,15.41
2017-08-10T03:51:40.498Z,15.41
2017-08-10T03:52:37.773Z,15.41
2017-08-10T03:53:35.101Z,15.39
2017-08-10T03:54:32.410Z,15.40
2017-08-10T03:55:29.656Z,15.38
2017-08-10T03:56:26.911Z,15.39
2017-08-10T03:57:24.173Z,15.38
2017-08-10T03:58:21.442Z,15.38
2017-08-10T03:59:18.689Z,15.37
2017-08-10T04:00:15.941Z,15.37
2017-08-10T04:01:13.195Z,15.37
2017-08-10T04:02:10.548Z,15.37
2017-08-10T04:03:07.776Z,15.36
2017-08-10T04:04:05.067Z,15.36
2017-08-10T04:05:02.312Z,15.35
2017-08-10T04:05:59.556Z,15.35
2017-08-10T04:06:56.772Z,15.34
2017-08-10T04:07:54.034Z,15.35
2017-08-10T04:08:51.676Z,15.34
2017-08-10T04:09:48.957Z,15.35
2017-08-10T04:10:46.187Z,15.34
2017-08-10T04:11:43.476Z,15.33
2017-08-10T04:12:40.808Z,15.34
2017-08-10T04:13:38.121Z,15.33
2017-08-10T04:14:35.370Z,15.32
2017-08-10T04:15:32.713Z,15.32
2017-08-10T04:16:29.945Z,15.32
2017-08-10T04:17:27.230Z,15.32
2017-08-10T04:18:24.461Z,15.31
2017-08-10T04:19:22.089Z,15.32
2017-08-10T04:20:19.310Z,15.30
2017-08-10T04:21:16.609Z,15.30
2017-08-10T04:22:13.889Z,15.31
2017-08-10T04:23:11.189Z,15.29
2017-08-10T04:24:08.466Z,15.31
2017-08-10T04:25:05.812Z,15.31
2017-08-10T04:26:03.117Z,15.29
2017-08-10T04:27:00.458Z,15.29
2017-08-10T04:27:57.785Z,15.29
2017-08-10T04:28:55.196Z,15.27
2017-08-10T04:29:52.496Z,15.28
2017-08-10T04:30:49.770Z,15.28
2017-08-10T04:31:47.021Z,15.28
2017-08-10T04:32:44.319Z,15.26
2017-08-10T04:33:41.574Z,15.26
2017-08-10T04:34:38.892Z,15.26
2017-08-10T04:35:36.140Z,15.27
2017-08-10T04:36:33.529Z,15.26
2017-08-10T04:37:30.777Z,15.25
2017-08-10T04:38:28.116Z,15.24
2017-08-10T04:39:25.400Z,15.23
2017-08-10T04:40:22.657Z,15.24
2017-08-10T04:41:19.885Z,15.23
2017-08-10T04:42:17.184Z,15.23
2017-08-10T04:43:14.423Z,15.23
2017-08-10T04:44:11.678Z,15.24
2017-08-10T04:45:08.954Z,15.22
2017-08-10T04:46:06.204Z,15.22
2017-08-10T04:47:03.433Z,15.22
2017-08-10T04:48:00.729Z,15.22
2017-08-10T04:48:57.969Z,15.21
2017-08-10T04:49:55.293Z,15.21
2017-08-10T04:50:52.576Z,15.21
2017-08-10T04:51:49.880Z,15.20
2017-08-10T04:52:47.124Z,15.20
2017-08-10T04:53:44.385Z,15.21
2017-08-10T04:54:41.745Z,15.19
2017-08-10T04:55:39.057Z,15.20
2017-08-10T04:56:36.296Z,15.18
2017-08-10T04:57:33.560Z,15.19
2017-08-10T04:58:30.803Z,15.18
2017-08-10T04:59:28.069Z,15.19
2017-08-10T05:00:25.368Z,15.19
2017-08-10T05:01:22.679Z,15.18
2017-08-10T05:02:19.962Z,15.17
2017-08-10T05:03:17.208Z,15.17
2017-08-10T05:04:14.460Z,15.17
2017-08-10T05:05:11.733Z,15.17
2017-08-10T05:06:09.081Z,15.16
2017-08-10T05:07:06.444Z,15.16
2017-08-10T05:08:03.694Z,15.15
2017-08-10T05:09:01.004Z,15.15
2017-08-10T05:09:58.247Z,15.15
2017-08-10T05:10:55.596Z,15.15
2017-08-10T05:11:52.888Z,15.14
2017-08-10T05:12:50.147Z,15.15
2017-08-10T05:13:47.461Z,15.14
2017-08-10T05:14:44.805Z,15.14
2017-08-10T05:15:42.100Z,15.14
2017-08-10T05:16:39.370Z,15.14
2017-08-10T05:17:36.685Z,15.13
2017-08-10T05:18:34.056Z,15.14
2017-08-10T05:19:31.364Z,15.13
2017-08-10T05:20:28.643Z,15.14
2017-08-10T05:21:25.941Z,15.12
2017-08-10T05:22:23.235Z,15.13
2017-08-10T05:23:20.463Z,15.11
2017-08-10T05:24:17.888Z,15.11
2017-08-10T05:25:15.126Z,15.11
2017-08-10T05:26:12.501Z,15.11
2017-08-10T05:27:09.775Z,15.10
2017-08-10T05:28:07.169Z,15.10
2017-08-10T05:29:04.409Z,15.10
2017-08-10T05:30:01.663Z,15.09
2017-08-10T05:30:59.227Z,15.11
2017-08-10T05:31:58.993Z,15.10
2017-08-10T05:32:56.891Z,15.10
2017-08-10T05:33:54.145Z,15.08
2017-08-10T05:34:51.421Z,15.09
2017-08-10T05:35:48.676Z,15.08
2017-08-10T05:36:46.032Z,15.07
2017-08-10T05:37:43.253Z,15.08
2017-08-10T05:38:40.566Z,15.06
2017-08-10T05:39:37.945Z,15.07
2017-08-10T05:40:35.211Z,15.08
2017-08-10T05:41:32.625Z,15.06
2017-08-10T05:42:30.069Z,15.07
2017-08-10T05:43:27.332Z,15.06
2017-08-10T05:44:24.676Z,15.06
2017-08-10T05:45:21.944Z,15.05
2017-08-10T05:46:19.243Z,15.05
2017-08-10T05:47:16.510Z,15.05
2017-08-10T05:48:13.793Z,15.04
2017-08-10T05:49:12.411Z,15.05
2017-08-10T05:50:11.588Z,15.03
2017-08-10T05:51:10.361Z,15.03
2017-08-10T05:52:07.674Z,15.03
2017-08-10T05:53:04.991Z,15.02
2017-08-10T05:54:02.752Z,15.02
2017-08-10T05:55:00.039Z,15.01
2017-08-10T05:55:57.397Z,15.02
2017-08-10T05:56:54.753Z,15.02
2017-08-10T05:57:52.080Z,15.01
2017-08-10T05:58:49.426Z,15.00
2017-08-10T05:59:46.778Z,15.02
2017-08-10T06:00:44.162Z,15.02
2017-08-10T06:01:41.489Z,15.00
2017-08-10T06:02:38.908Z,15.02
2017-08-10T06:03:36.399Z,15.01
2017-08-10T06:04:33.862Z,15.01
2017-08-10T06:05:31.181Z,15.00
2017-08-10T06:06:28.642Z,15.00
2017-08-10T06:07:25.941Z,15.00
2017-08-10T06:08:23.263Z,14.99
2017-08-10T06:09:20.513Z,15.00
2017-08-10T06:10:17.859Z,15.00
2017-08-10T06:11:15.329Z,15.00
2017-08-10T06:12:12.685Z,14.99
2017-08-10T06:13:11.151Z,14.99
2017-08-10T06:14:08.913Z,14.98
2017-08-10T06:15:06.228Z,14.98
2017-08-10T06:16:03.524Z,14.98
2017-08-10T06:17:00.961Z,14.99
2017-08-10T06:17:58.297Z,14.97
2017-08-10T06:18:55.655Z,14.97
2017-08-10T06:19:53.335Z,14.98
2017-08-10T06:20:50.813Z,14.98
2017-08-10T06:21:49.161Z,14.97
2017-08-10T06:22:46.548Z,14.97
2017-08-10T06:23:43.890Z,14.97
2017-08-10T06:24:41.190Z,14.98
2017-08-10T06:25:38.484Z,14.97
2017-08-10T06:26:36.115Z,14.97
2017-08-10T06:27:34.189Z,14.95
2017-08-10T06:28:31.505Z,14.97
2017-08-10T06:29:28.852Z,14.96
2017-08-10T06:30:26.207Z,14.96
2017-08-10T06:31:23.544Z,14.95
2017-08-10T06:32:20.845Z,14.96
2017-08-10T06:33:18.180Z,14.96
2017-08-10T06:34:15.449Z,14.95
2017-08-10T06:35:12.685Z,14.95
2017-08-10T06:36:10.085Z,14.96
2017-08-10T06:37:07.433Z,14.96
2017-08-10T06:38:04.766Z,14.94
2017-08-10T06:39:02.057Z,14.96
2017-08-10T06:39:59.368Z,14.95
2017-08-10T06:40:56.595Z,14.95
2017-08-10T06:41:53.849Z,14.95
2017-08-10T06:42:51.131Z,14.96
2017-08-10T06:43:48.397Z,14.96
2017-08-10T06:44:45.661Z,14.95
2017-08-10T06:45:42.917Z,14.94
2017-08-10T06:46:40.221Z,14.95
2017-08-10T06:47:37.529Z,14.96
2017-08-10T06:48:34.876Z,14.94
2017-08-10T06:49:32.165Z,14.95
2017-08-10T06:50:29.497Z,14.95
2017-08-10T06:51:26.807Z,14.95
2017-08-10T06:52:24.151Z,14.95
2017-08-10T06:53:21.868Z,14.94
2017-08-10T06:54:19.118Z,14.94
2017-08-10T06:55:16.385Z,14.94
2017-08-10T06:56:13.662Z,14.95
2017-08-10T06:57:10.974Z,14.94
2017-08-10T06:58:08.223Z,14.94
2017-08-10T06:59:05.517Z,14.94
2017-08-10T07:00:02.757Z,14.93
2017-08-10T07:01:00.086Z,14.93
2017-08-10T07:01:57.361Z,14.95
2017-08-10T07:02:54.648Z,14.94
2017-08-10T07:03:51.910Z,14.94
2017-08-10T07:04:49.184Z,14.94
2017-08-10T07:05:46.472Z,14.94
2017-08-10T07:06:43.761Z,14.95
2017-08-10T07:07:41.021Z,14.94
2017-08-10T07:08:38.338Z,14.95
2017-08-10T07:09:35.605Z,14.95
2017-08-10T07:10:32.911Z,14.95
2017-08-10T07:11:30.177Z,14.94
2017-08-10T07:12:27.458Z,14.94
2017-08-10T07:13:24.759Z,14.94
2017-08-10T07:14:22.070Z,14.94
2017-08-10T07:15:19.366Z,14.95
2017-08-10T07:16:16.751Z,14.94
2017-08-10T07:17:14.046Z,14.94
2017-08-10T07:18:11.372Z,14.94
2017-08-10T07:19:08.691Z,14.95
2017-08-10T07:20:05.998Z,14.94
2017-08-10T07:21:03.277Z,14.96
2017-08-10T07:22:00.633Z,14.95
2017-08-10T07:22:57.972Z,14.94
2017-08-10T07:23:55.347Z,14.94
2017-08-10T07:24:52.722Z,14.95
2017-08-10T07:25:50.032Z,14.95
2017-08-10T07:26:47.300Z,14.95
2017-08-10T07:27:44.621Z,14.93
2017-08-10T07:28:41.842Z,14.93
2017-08-10T07:29:39.136Z,14.94
2017-08-10T07:30:36.369Z,14.94
2017-08-10T07:31:33.824Z,14.95
2017-08-10T07:32:31.084Z,14.94
2017-08-10T07:33:28.468Z,14.93
2017-08-10T07:34:25.758Z,14.93
2017-08-10T07:35:23.071Z,14.94
2017-08-10T07:36:20.364Z,14.94
2017-08-10T07:37:17.613Z,14.94
2017-08-10T07:38:14.970Z,14.95
2017-08-10T07:39:12.246Z,14.94
2017-08-10T07:40:09.561Z,14.95
2017-08-10T07:41:06.812Z,14.95
2017-08-10T07:42:04.065Z,14.94
2017-08-10T07:43:01.440Z,14.95
2017-08-10T07:43:58.724Z,14.94
2017-08-10T07:44:56.068Z,14.95
2017-08-10T07:45:53.400Z,14.95
2017-08-10T07:46:50.794Z,14.94
2017-08-10T07:47:48.052Z,14.94
2017-08-10T07:48:50.477Z,14.94
2017-08-10T07:49:47.876Z,14.95
2017-08-10T07:50:45.218Z,14.94
2017-08-10T07:51:42.518Z,14.94
2017-08-10T07:52:39.765Z,14.94
2017-08-10T07:53:37.054Z,14.94
2017-08-10T07:54:34.341Z,14.95
2017-08-10T07:55:31.732Z,14.95
2017-08-10T07:56:29.021Z,14.96
2017-08-10T07:57:26.320Z,14.94
2017-08-10T07:58:23.594Z,14.95
2017-08-10T07:59:20.858Z,14.95
2017-08-10T08:00:18.215Z,14.95
2017-08-10T08:01:15.509Z,14.96
2017-08-10T08:02:12.821Z,14.96
2017-08-10T08:03:10.121Z,14.96
2017-08-10T08:04:07.462Z,14.94
2017-08-10T08:05:04.757Z,14.97
2017-08-10T08:06:02.019Z,14.96
2017-08-10T08:06:59.312Z,14.97
2017-08-10T08:07:56.565Z,14.96
2017-08-10T08:08:54.297Z,14.96
2017-08-10T08:09:51.702Z,14.98
2017-08-10T08:10:49.030Z,14.97
2017-08-10T08:11:46.289Z,14.97
2017-08-10T08:12:43.588Z,14.96
2017-08-10T08:13:40.855Z,14.96
2017-08-10T08:14:38.167Z,14.97
2017-08-10T08:15:35.506Z,14.98
2017-08-10T08:16:32.830Z,14.97
2017-08-10T08:17:30.123Z,14.97
2017-08-10T08:18:27.396Z,14.97
2017-08-10T08:19:24.667Z,14.98
2017-08-10T08:20:22.042Z,14.96
2017-08-10T08:21:19.354Z,14.96
2017-08-10T08:22:16.665Z,14.96
2017-08-10T08:23:13.960Z,14.97
2017-08-10T08:24:11.248Z,14.97
2017-08-10T08:25:08.533Z,14.97
2017-08-10T08:26:06.318Z,14.97
2017-08-10T08:27:03.588Z,14.96
2017-08-10T08:28:00.865Z,14.98
2017-08-10T08:28:58.216Z,14.96
2017-08-10T08:29:55.519Z,14.97
2017-08-10T08:30:52.777Z,14.96
2017-08-10T08:31:50.095Z,14.97
2017-08-10T08:32:47.465Z,14.98
2017-08-10T08:33:44.808Z,14.98
2017-08-10T08:34:42.071Z,14.97
2017-08-10T08:35:39.473Z,14.97
2017-08-10T08:36:36.765Z,14.97
2017-08-10T08:37:34.041Z,14.98
2017-08-10T08:38:31.384Z,14.97
2017-08-10T08:39:28.653Z,14.98
2017-08-10T08:40:25.927Z,14.98
2017-08-10T08:41:23.250Z,14.97
2017-08-10T08:42:20.514Z,14.97
2017-08-10T08:43:17.793Z,14.98
2017-08-10T08:44:16.068Z,14.98
2017-08-10T08:45:13.337Z,14.99
2017-08-10T08:46:10.628Z,14.98
2017-08-10T08:47:07.900Z,14.99
2017-08-10T08:48:05.188Z,14.98
2017-08-10T08:49:02.481Z,15.00
2017-08-10T08:49:59.717Z,14.99
2017-08-10T08:50:57.045Z,15.00
2017-08-10T08:51:54.382Z,15.00
2017-08-10T08:52:51.690Z,15.00
2017-08-10T08:53:48.928Z,15.00
2017-08-10T08:54:46.209Z,14.99
2017-08-10T08:55:43.464Z,15.00
2017-08-10T08:56:40.769Z,15.01
2017-08-10T08:57:38.174Z,15.00
2017-08-10T08:58:35.449Z,15.01
2017-08-10T08:59:32.730Z,15.01
2017-08-10T09:00:30.001Z,15.01
2017-08-10T09:01:27.410Z,15.02
2017-08-10T09:02:24.691Z,15.02
2017-08-10T09:03:22.006Z,15.01
2017-08-10T09:04:19.381Z,15.01
2017-08-10T09:05:16.638Z,15.02
2017-08-10T09:06:13.922Z,15.02
2017-08-10T09:07:11.189Z,15.02
2017-08-10T09:08:08.494Z,15.02
2017-08-10T09:09:05.790Z,15.03
2017-08-10T09:10:03.073Z,15.02
2017-08-10T09:11:00.360Z,15.02
2017-08-10T09:11:57.716Z,15.03
2017-08-10T09:12:55.013Z,15.04
2017-08-10T09:13:52.281Z,15.03
2017-08-10T09:14:49.601Z,15.05
2017-08-10T09:15:46.879Z,15.05
2017-08-10T09:16:44.154Z,15.05
2017-08-10T09:17:41.474Z,15.04
2017-08-10T09:18:38.852Z,15.06
2017-08-10T09:19:36.162Z,15.06
2017-08-10T09:20:33.477Z,15.06
2017-08-10T09:21:30.827Z,15.07
2017-08-10T09:22:28.164Z,15.07
2017-08-10T09:23:25.508Z,15.08
2017-08-10T09:24:23.012Z,15.07
2017-08-10T09:25:20.319Z,15.06
2017-08-10T09:26:17.793Z,15.08
2017-08-10T09:27:15.157Z,15.08
2017-08-10T09:28:12.494Z,15.08
2017-08-10T09:29:09.761Z,15.09
2017-08-10T09:30:07.055Z,15.08
2017-08-10T09:31:04.316Z,15.09
2017-08-10T09:32:01.668Z,15.09
2017-08-10T09:32:58.923Z,15.08
2017-08-10T09:33:56.202Z,15.10
2017-08-10T09:34:53.452Z,15.11
2017-08-10T09:35:50.770Z,15.11
2017-08-10T09:36:48.041Z,15.11
2017-08-10T09:37:45.357Z,15.11
2017-08-10T09:38:42.665Z,15.12
2017-08-10T09:39:39.902Z,15.11
2017-08-10T09:40:37.176Z,15.11
2017-08-10T09:41:34.429Z,15.11
2017-08-10T09:42:31.842Z,15.10
2017-08-10T09:43:29.123Z,15.11
2017-08-10T09:44:26.398Z,15.11
2017-08-10T09:45:23.633Z,15.11
2017-08-10T09:46:20.929Z,15.11
2017-08-10T09:47:18.214Z,15.11
2017-08-10T09:48:15.497Z,15.12
2017-08-10T09:49:12.777Z,15.13
2017-08-10T09:50:10.040Z,15.12
2017-08-10T09:51:07.653Z,15.13
2017-08-10T09:52:04.922Z,15.13
2017-08-10T09:53:02.256Z,15.13
2017-08-10T09:53:59.573Z,15.14
2017-08-10T09:54:56.857Z,15.14
2017-08-10T09:55:54.141Z,15.14
2017-08-10T09:56:51.452Z,15.16
2017-08-10T09:57:48.853Z,15.16
2017-08-10T09:58:46.137Z,15.15
2017-08-10T09:59:43.409Z,15.17
2017-08-10T10:00:40.692Z,15.17
2017-08-10T10:01:37.981Z,15.17
2017-08-10T10:02:35.341Z,15.16
2017-08-10T10:03:32.645Z,15.18
2017-08-10T10:04:29.961Z,15.18
2017-08-10T10:05:27.316Z,15.18
2017-08-10T10:06:24.573Z,15.19
2017-08-10T10:07:21.917Z,15.20
2017-08-10T10:08:19.268Z,15.20
2017-08-10T10:09:16.577Z,15.20
2017-08-10T10:10:13.873Z,15.19
2017-08-10T10:11:11.137Z,15.19
2017-08-10T10:12:08.393Z,15.19
2017-08-10T10:13:05.827Z,15.21
2017-08-10T10:14:03.093Z,15.21
2017-08-10T10:15:00.439Z,15.20
2017-08-10T10:15:57.681Z,15.21
2017-08-10T10:16:54.956Z,15.21
2017-08-10T10:17:52.261Z,15.22
2017-08-10T10:18:49.688Z,15.22
2017-08-10T10:19:47.137Z,15.22
2017-08-10T10:20:44.514Z,15.22
2017-08-10T10:21:41.766Z,15.22
2017-08-10T10:22:39.085Z,15.22
2017-08-10T10:23:36.394Z,15.22
2017-08-10T10:24:33.683Z,15.23
2017-08-10T10:25:30.991Z,15.22
2017-08-10T10:26:28.335Z,15.23
2017-08-10T10:27:25.648Z,15.23
2017-08-10T10:28:23.025Z,15.22
2017-08-10T10:29:20.313Z,15.24
2017-08-10T10:30:17.584Z,15.24
2017-08-10T10:31:14.853Z,15.23
2017-08-10T10:32:12.154Z,15.26
2017-08-10T10:33:09.422Z,15.23
2017-08-10T10:34:06.795Z,15.24
2017-08-10T10:35:04.256Z,15.25
2017-08-10T10:36:01.785Z,15.24
2017-08-10T10:36:59.077Z,15.25
2017-08-10T10:37:56.413Z,15.25
2017-08-10T10:38:53.703Z,15.27
2017-08-10T10:39:50.979Z,15.25
2017-08-10T10:40:48.246Z,15.26
2017-08-10T10:41:45.546Z,15.26
2017-08-10T10:42:42.928Z,15.26
2017-08-10T10:43:40.201Z,15.29
2017-08-10T10:44:37.485Z,15.27
2017-08-10T10:45:34.834Z,15.27
2017-08-10T10:46:32.077Z,15.29
2017-08-10T10:47:29.372Z,15.27
2017-08-10T10:48:26.650Z,15.28
2017-08-10T10:49:24.073Z,15.29
2017-08-10T10:50:21.340Z,15.28
2017-08-10T10:51:18.627Z,15.30
2017-08-10T10:52:15.932Z,15.30
2017-08-10T10:53:13.293Z,15.30
2017-08-10T10:54:10.705Z,15.31
2017-08-10T10:55:08.059Z,15.30
2017-08-10T10:56:05.349Z,15.30
2017-08-10T10:57:02.678Z,15.31
2017-08-10T10:57:59.995Z,15.31
2017-08-10T10:58:57.451Z,15.31
2017-08-10T10:59:54.822Z,15.33
2017-08-10T11:00:52.197Z,15.32
2017-08-10T11:01:49.501Z,15.31
2017-08-10T11:02:46.805Z,15.32
2017-08-10T11:03:44.161Z,15.32
2017-08-10T11:04:41.484Z,15.31
2017-08-10T11:05:38.733Z,15.32
2017-08-10T11:06:36.013Z,15.31
2017-08-10T11:07:33.325Z,15.31
2017-08-10T11:08:30.603Z,15.33
2017-08-10T11:09:27.924Z,15.31
2017-08-10T11:10:25.237Z,15.32
2017-08-10T11:11:22.572Z,15.32
2017-08-10T11:12:19.894Z,15.31
2017-08-10T11:13:17.216Z,15.32
2017-08-10T11:14:14.516Z,15.34
2017-08-10T11:15:11.890Z,15.34
2017-08-10T11:16:09.285Z,15.34
2017-08-10T11:17:06.602Z,15.34
2017-08-10T11:18:03.895Z,15.35
2017-08-10T11:19:01.197Z,15.35
2017-08-10T11:19:58.526Z,15.36
2017-08-10T11:20:55.797Z,15.35
2017-08-10T11:21:53.170Z,15.35
2017-08-10T11:22:50.513Z,15.36
2017-08-10T11:23:47.810Z,15.37
2017-08-10T11:24:45.108Z,15.37
2017-08-10T11:25:42.419Z,15.37
2017-08-10T11:26:39.668Z,15.39
2017-08-10T11:27:36.966Z,15.38
2017-08-10T11:28:34.254Z,15.38
2017-08-10T11:29:31.545Z,15.37
2017-08-10T11:30:28.832Z,15.37
2017-08-10T11:31:26.158Z,15.38
2017-08-10T11:32:23.432Z,15.38
2017-08-10T11:33:20.722Z,15.39
2017-08-10T11:34:17.995Z,15.40
2017-08-10T11:35:15.318Z,15.38
2017-08-10T11:36:12.658Z,15.40
2017-08-10T11:37:10.261Z,15.41
2017-08-10T11:38:07.547Z,15.39
2017-08-10T11:39:04.894Z,15.41
2017-08-10T11:40:02.190Z,15.41
2017-08-10T11:40:59.494Z,15.43
2017-08-10T11:41:56.800Z,15.42
2017-08-10T11:42:54.117Z,15.43
2017-08-10T11:43:51.413Z,15.43
2017-08-10T11:44:48.756Z,15.42
2017-08-10T11:45:46.172Z,15.43
2017-08-10T11:46:43.466Z,15.43
2017-08-10T11:47:40.781Z,15.45
2017-08-10T11:48:38.165Z,15.44
2017-08-10T11:49:35.492Z,15.45
2017-08-10T11:50:32.797Z,15.46
2017-08-10T11:51:30.115Z,15.46
2017-08-10T11:52:27.394Z,15.46
2017-08-10T11:53:24.652Z,15.46
2017-08-10T11:54:21.969Z,15.46
2017-08-10T11:55:19.223Z,15.47
2017-08-10T11:56:16.548Z,15.46
2017-08-10T11:57:13.849Z,15.46
2017-08-10T11:58:11.202Z,15.48
2017-08-10T11:59:08.505Z,15.48
2017-08-10T12:00:05.780Z,15.48
2017-08-10T12:01:03.131Z,15.48
2017-08-10T12:02:00.437Z,15.48
2017-08-10T12:02:57.721Z,15.49
2017-08-10T12:03:55.077Z,15.49
2017-08-10T12:04:52.341Z,15.51
2017-08-10T12:05:49.617Z,15.49
2017-08-10T12:06:46.955Z,15.49
2017-08-10T12:07:44.279Z,15.51
2017-08-10T12:08:41.552Z,15.51
2017-08-10T12:09:38.817Z,15.51
2017-08-10T12:10:36.060Z,15.52
2017-08-10T12:11:33.395Z,15.53
2017-08-10T12:12:30.673Z,15.52
2017-08-10T12:13:27.977Z,15.52
2017-08-10T12:14:25.236Z,15.53
2017-08-10T12:15:22.600Z,15.53
2017-08-10T12:16:19.915Z,15.53
2017-08-10T12:17:17.217Z,15.53
2017-08-10T12:18:14.504Z,15.53